TimeMDT,TemperatureF,Dew PointF,Humidity,Sea Level PressureIn,VisibilityMPH,Wind Direction,Wind SpeedMPH,Gust SpeedMPH,PrecipitationIn,Events,Conditions,WindDirDegrees,DateUTC
12:53 AM,57.9,53.1,84,30.10,10.0,SSE,9.2,-,N/A,,Partly Cloudy,160,2013-08-14 06:53:00
1:53 AM,57.9,52.0,81,30.07,10.0,South,4.6,-,N/A,,Clear,190,2013-08-14 07:53:00
2:53 AM,57.0,53.1,87,30.07,10.0,North,5.8,-,N/A,,Clear,350,2013-08-14 08:53:00
3:53 AM,55.0,52.0,89,30.08,10.0,WNW,5.8,-,N/A,,Clear,290,2013-08-14 09:53:00
4:53 AM,54.0,52.0,93,30.09,10.0,NW,5.8,-,N/A,,Clear,310,2013-08-14 10:53:00
5:53 AM,53.1,50.0,89,30.09,10.0,Calm,Calm,-,N/A,,Clear,0,2013-08-14 11:53:00
6:53 AM,55.0,52.0,89,30.09,10.0,Calm,Calm,-,N/A,,Clear,0,2013-08-14 12:53:00
7:53 AM,60.1,53.1,78,30.10,10.0,Calm,Calm,-,N/A,,Clear,0,2013-08-14 13:53:00
8:53 AM,64.9,52.0,63,30.08,10.0,Calm,Calm,-,N/A,,Clear,0,2013-08-14 14:53:00
9:53 AM,68.0,53.1,59,30.07,10.0,South,3.5,-,N/A,,Clear,190,2013-08-14 15:53:00
10:53 AM,73.9,53.1,48,30.06,10.0,West,3.5,-,N/A,,Clear,270,2013-08-14 16:53:00
11:53 AM,77.0,52.0,42,30.03,10.0,Calm,Calm,-,N/A,,Clear,0,2013-08-14 17:53:00
12:53 PM,82.9,52.0,34,30.01,10.0,Calm,Calm,-,N/A,,Clear,0,2013-08-14 18:53:00
1:53 PM,86.0,44.1,23,29.98,10.0,Variable,5.8,-,N/A,,Clear,0,2013-08-14 19:53:00
2:53 PM,87.1,43.0,21,29.96,10.0,Calm,Calm,-,N/A,,Clear,0,2013-08-14 20:53:00
3:53 PM,86.0,42.1,21,29.95,10.0,Calm,Calm,-,N/A,,Clear,0,2013-08-14 21:53:00
4:53 PM,87.1,41.0,20,29.93,10.0,West,5.8,-,N/A,,Clear,270,2013-08-14 22:53:00
5:53 PM,84.0,43.0,24,29.94,10.0,Calm,Calm,-,N/A,,Clear,0,2013-08-14 23:53:00
6:53 PM,81.0,48.9,33,29.91,10.0,ESE,4.6,-,N/A,,Clear,110,2013-08-15 00:53:00
7:53 PM,73.9,57.0,55,29.94,10.0,South,5.8,-,N/A,,Clear,170,2013-08-15 01:53:00
8:53 PM,70.0,55.9,61,29.97,10.0,East,6.9,-,N/A,,Clear,90,2013-08-15 02:53:00
9:53 PM,70.0,51.1,51,29.99,10.0,SW,4.6,-,N/A,,Clear,230,2013-08-15 03:53:00
10:53 PM,66.9,46.9,49,29.97,10.0,Calm,Calm,-,N/A,,Clear,0,2013-08-15 04:53:00
11:53 PM,62.1,51.1,67,29.99,10.0,North,6.9,-,N/A,,Clear,10,2013-08-15 05:53:00